Aurora, NE

12:19 PM CDT on July 26, 2017 (GMT -0500)
Aurora Municipal

Weather History for KAUH - November, 2012

Change the Weather History Date:

Friday, November 2, 2012

  Actual Average Record
Temperature  
Mean Temperature 44 °F -  
Max Temperature 53 °F 51 °F 78 °F (2005)
Min Temperature 32 °F 33 °F 4 °F (1991)
Degree Days  
Heating Degree Days 22    
Moisture  
Dew Point 33 °F    
Average Humidity 74    
Maximum Humidity 95    
Minimum Humidity 45    
Precipitation  
Precipitation 0.00 in - - ()
Sea Level Pressure  
Sea Level Pressure 29.96 in    
Wind  
Wind Speed 9 mph (ENE)    
Max Wind Speed 16 mph    
Max Gust Speed 22 mph    
Visibility 8 miles    
Events      
Averages and records for this station are not official NWS values.
T = Trace of Precipitation, MM = Missing Value Source: NWS Daily Summary

Daily Weather History Graph

Daily Weather History Graph

Search for Another Location

Airport or City:

Trip Planner

Search our weather history database for the weather conditions in past years. The results will help you decide how hot, cold, wet, or windy it might be!

Date:

Astronomy

Nov. 02, 2012 Rise Set
Actual Time 8:04 AM CDT 6:26 PM CDT
Civil Twilight 7:35 AM CDT 6:54 PM CDT
Nautical Twilight 7:03 AM CDT 7:27 PM CDT
Astronomical Twilight 6:31 AM CDT 7:59 PM CDT
Moon 9:13 PM CDT (11/2) 11:26 AM CDT (11/2)
Length of Visible Light 11h 18m
Length of Day
10h 21m
Waning Gibbous, 87% of the Moon is Illuminated
Nov 2
Waning Gibbous
Nov 6
Last Quarter
Nov 13
New
Nov 20
First Quarter
Nov 28
Full

Hourly Weather History & Observations

Time (CDT) Temp. Windchill Dew Point Humidity Pressure Visibility Wind Dir Wind Speed Gust Speed Precip Events Conditions
12:15 AM 38.3 °F 31.4 °F 36.5 °F 93% 29.92 in 3.0 mi East 10.4 mph - N/A   Clear
12:35 AM 37.8 °F 31.8 °F 36.1 °F 94% 29.93 in 2.5 mi East 8.1 mph - N/A   Clear
12:55 AM 37.2 °F 31.9 °F 35.6 °F 94% 29.94 in 2.5 mi East 6.9 mph - N/A   Clear
1:15 AM 37.6 °F 31.6 °F 36.1 °F 95% 29.93 in 2.5 mi East 8.1 mph - N/A   Clear
1:35 AM 37.8 °F 32.5 °F 36.5 °F 95% 29.93 in 2.5 mi East 6.9 mph - N/A   Clear
1:55 AM 37.6 °F 31.6 °F 36.1 °F 95% 29.93 in 2.5 mi East 8.1 mph - N/A   Clear
2:15 AM 37.8 °F 31.8 °F 36.3 °F 95% 29.93 in 2.5 mi East 8.1 mph - N/A   Clear
2:35 AM 38.3 °F 32.5 °F 36.5 °F 93% 29.92 in 3.0 mi East 8.1 mph - N/A   Clear
2:55 AM 38.5 °F 32.1 °F 36.7 °F 93% 29.92 in 4.0 mi ESE 9.2 mph - N/A   Clear
3:15 AM 38.3 °F 32.5 °F 36.1 °F 92% 29.92 in 4.0 mi ESE 8.1 mph - N/A   Clear
3:35 AM 38.3 °F 32.5 °F 36.1 °F 92% 29.92 in 4.0 mi ESE 8.1 mph - N/A   Clear
3:55 AM 38.3 °F 32.5 °F 36.0 °F 91% 29.92 in 4.0 mi ESE 8.1 mph - N/A   Clear
4:15 AM 37.9 °F 32.7 °F 35.8 °F 92% 29.92 in 4.0 mi ESE 6.9 mph - N/A   Clear
4:35 AM 37.4 °F 32.1 °F 35.6 °F 93% 29.92 in 4.0 mi ESE 6.9 mph - N/A   Clear
4:55 AM 36.9 °F 31.4 °F 35.1 °F 93% 29.91 in 4.0 mi ESE 6.9 mph - N/A   Clear
5:15 AM 36.0 °F 30.3 °F 34.3 °F 94% 29.91 in 3.0 mi ESE 6.9 mph - N/A   Clear
5:35 AM 35.6 °F 29.9 °F 33.8 °F 93% 29.91 in 3.0 mi East 6.9 mph - N/A   Clear
5:55 AM 34.7 °F 28.8 °F 33.3 °F 94% 29.91 in 3.0 mi East 6.9 mph - N/A   Clear
6:15 AM 34.3 °F 28.4 °F 32.9 °F 94% 29.91 in 4.0 mi ESE 6.9 mph - N/A   Clear
6:35 AM 35.1 °F 28.6 °F 33.6 °F 94% 29.90 in 5.0 mi ESE 8.1 mph - N/A   Clear
6:55 AM 35.6 °F 28.6 °F 33.1 °F 91% 29.89 in 5.0 mi East 9.2 mph - N/A   Clear
7:15 AM 35.6 °F 28.0 °F 32.5 °F 89% 29.89 in 7.0 mi ESE 10.4 mph - N/A   Clear
7:35 AM 36.0 °F 28.5 °F 32.4 °F 87% 29.89 in 7.0 mi ESE 10.4 mph - N/A   Clear
7:55 AM 36.5 °F 27.8 °F 32.0 °F 84% 29.89 in 10.0 mi ESE 13.8 mph - N/A   Clear
8:15 AM 36.5 °F 28.2 °F 32.0 °F 84% 29.89 in 10.0 mi ESE 12.7 mph - N/A   Clear
8:35 AM 36.5 °F 28.7 °F 32.0 °F 84% 29.89 in 10.0 mi ESE 11.5 mph - N/A   Clear
8:55 AM 36.9 °F 29.6 °F 32.2 °F 83% 29.91 in 10.0 mi ESE 10.4 mph - N/A   Clear
9:15 AM 38.3 °F 30.9 °F 32.5 °F 80% 29.92 in 10.0 mi ESE 11.5 mph - N/A   Clear
9:35 AM 39.2 °F 32.5 °F 33.1 °F 79% 29.93 in 10.0 mi ESE 10.4 mph - N/A   Clear
9:55 AM 40.6 °F 34.3 °F 33.8 °F 77% 29.93 in 10.0 mi ESE 10.4 mph - N/A   Clear
10:15 AM 41.9 °F 35.4 °F 33.4 °F 72% 29.93 in 10.0 mi ESE 11.5 mph - N/A   Clear
10:35 AM 43.5 °F 36.7 °F 33.6 °F 68% 29.93 in 10.0 mi SE 13.8 mph - N/A   Clear
10:55 AM 44.2 °F 39.7 °F 33.3 °F 65% 29.94 in 10.0 mi ESE 8.1 mph 11.5 mph N/A   Clear
11:15 AM 44.8 °F 39.9 °F 33.4 °F 64% 29.93 in 10.0 mi SE 9.2 mph - N/A   Clear
11:35 AM 46.0 °F 42.5 °F 33.4 °F 61% 29.94 in 10.0 mi ESE 6.9 mph - N/A   Clear
11:55 AM 48.0 °F - 33.4 °F 57% 29.93 in 10.0 mi ESE 8.1 mph - N/A   Clear
12:15 PM 49.8 °F - 33.8 °F 54% 29.93 in 10.0 mi SE 8.1 mph 16.1 mph N/A   Clear
12:35 PM 50.5 °F - 33.3 °F 52% 29.93 in 10.0 mi ESE 4.6 mph - N/A   Clear
12:55 PM 51.3 °F - 33.6 °F 51% 29.93 in 10.0 mi East 3.5 mph - N/A   Clear
1:15 PM 51.3 °F - 33.4 °F 51% 29.93 in 10.0 mi Calm Calm - N/A   Clear
1:35 PM 51.8 °F - 33.6 °F 50% 29.93 in 10.0 mi Calm Calm - N/A   Clear
1:55 PM 52.0 °F - 33.4 °F 49% 29.93 in 10.0 mi North 3.5 mph - N/A   Clear
2:15 PM 52.9 °F - 33.8 °F 48% 29.93 in 10.0 mi North 9.2 mph - N/A   Clear
2:35 PM 52.0 °F - 32.9 °F 48% 29.93 in 10.0 mi North 9.2 mph - N/A   Clear
2:55 PM 52.7 °F - 33.1 °F 47% 29.94 in 10.0 mi North 10.4 mph - N/A   Clear
3:15 PM 52.7 °F - 33.1 °F 47% 29.94 in 10.0 mi North 10.4 mph - N/A   Clear
3:35 PM 52.9 °F - 32.4 °F 46% 29.94 in 10.0 mi North 10.4 mph - N/A   Clear
3:55 PM 53.2 °F - 32.4 °F 45% 29.95 in 10.0 mi North 13.8 mph - N/A   Clear
4:15 PM 53.1 °F - 32.0 °F 45% 29.96 in 10.0 mi North 15.0 mph 19.6 mph N/A   Clear
4:35 PM 52.7 °F - 32.2 °F 46% 29.97 in 10.0 mi North 16.1 mph 21.9 mph N/A   Clear
4:55 PM 51.1 °F - 32.0 °F 48% 29.97 in 10.0 mi North 15.0 mph - N/A   Clear
5:15 PM 49.6 °F - 32.0 °F 51% 29.98 in 10.0 mi North 10.4 mph - N/A   Clear
5:35 PM 48.4 °F - 32.0 °F 53% 29.99 in 10.0 mi North 10.4 mph - N/A   Clear
5:55 PM 47.5 °F - 32.0 °F 55% 29.99 in 10.0 mi North 9.2 mph - N/A   Clear
6:15 PM 46.6 °F - 31.6 °F 56% 30.00 in 10.0 mi North 11.5 mph - N/A   Clear
6:35 PM 45.5 °F 40.8 °F 31.1 °F 57% 30.01 in 10.0 mi North 9.2 mph - N/A   Clear
6:55 PM 44.1 °F 39.5 °F 30.9 °F 60% 30.02 in 10.0 mi North 8.1 mph - N/A   Clear
7:15 PM 43.3 °F 38.6 °F 30.9 °F 62% 30.04 in 10.0 mi North 8.1 mph - N/A   Clear
7:35 PM 41.4 °F 35.2 °F 31.8 °F 69% 30.05 in 10.0 mi NNW 10.4 mph - N/A   Clear
7:55 PM 41.7 °F 35.6 °F 32.4 °F 69% 30.05 in 10.0 mi NNW 10.4 mph - N/A   Clear
8:15 PM 41.0 °F 35.2 °F 32.2 °F 71% 30.06 in 10.0 mi NNW 9.2 mph - N/A   Clear
8:35 PM 40.1 °F 33.6 °F 32.2 °F 73% 30.07 in 10.0 mi NNW 10.4 mph - N/A   Clear
8:55 PM 38.7 °F 31.8 °F 32.4 °F 78% 30.07 in 7.0 mi NNW 10.4 mph - N/A   Clear
9:15 PM 39.0 °F 31.8 °F 32.5 °F 78% 30.08 in 7.0 mi NNW 11.5 mph - N/A   Clear
9:35 PM 38.3 °F 31.9 °F 32.2 °F 79% 30.08 in 7.0 mi NNW 9.2 mph - N/A   Clear
9:55 PM 37.4 °F 30.3 °F 32.0 °F 81% 30.09 in 7.0 mi NNW 10.4 mph - N/A   Clear
10:15 PM 36.1 °F 29.3 °F 31.6 °F 84% 30.10 in 7.0 mi NNW 9.2 mph - N/A   Clear
10:35 PM 36.7 °F 29.9 °F 31.6 °F 82% 30.10 in 10.0 mi North 9.2 mph - N/A   Clear
10:55 PM 35.6 °F 29.2 °F 31.1 °F 84% 30.11 in 10.0 mi NNW 8.1 mph - N/A   Clear
11:15 PM 35.4 °F 29.0 °F 30.9 °F 84% 30.11 in 10.0 mi North 8.1 mph - N/A   Clear
11:35 PM 34.7 °F 28.8 °F 30.4 °F 84% 30.11 in 10.0 mi North 6.9 mph - N/A   Clear
11:55 PM 32.2 °F 25.8 °F 28.9 °F 88% 30.11 in 7.0 mi NNW 6.9 mph - N/A   Clear